Time;durP1;ratioP1;P1;durP2;ratioP2;P2;SDS_P1;SDS_P2;PMS_P1;PMS_P2;Temp;Humidity;BMP_temperature;BMP_pressure;BME280_temperature;BME280_humidity;BME280_pressure;Samples;Min_cycle;Max_cycle;Signal;HPM_P1;HPM_P2
2020/12/03 00:00:42;;;;;;;43.88;21.90;;;1.70;99.90;;;;;;5064037;28;20048;-75
2020/12/03 00:03:30;;;;;;;39.33;20.77;;;1.70;99.90;;;;;;5082888;28;20052;-76
2020/12/03 00:06:31;;;;;;;38.67;21.80;;;1.70;99.90;;;;;;5080923;28;20041;-75
2020/12/03 00:09:06;;;;;;;40.22;22.48;;;1.60;99.90;;;;;;5064446;28;20040;-76
2020/12/03 00:11:34;;;;;;;37.97;20.95;;;1.60;99.90;;;;;;5048641;28;20059;-76
2020/12/03 00:14:01;;;;;;;38.22;20.92;;;1.60;99.90;;;;;;5084463;28;20055;-75
2020/12/03 00:16:30;;;;;;;37.78;21.90;;;1.60;99.90;;;;;;5045668;28;20519;-76
2020/12/03 00:18:57;;;;;;;35.17;19.83;;;1.60;99.90;;;;;;5084610;28;20051;-76
2020/12/03 00:21:36;;;;;;;39.47;20.05;;;1.60;99.90;;;;;;5078568;28;20048;-75
2020/12/03 00:24:05;;;;;;;37.03;21.08;;;1.60;99.90;;;;;;5067158;28;20055;-76
2020/12/03 00:26:31;;;;;;;34.28;19.55;;;1.60;99.90;;;;;;5084312;28;20526;-76
2020/12/03 00:28:58;;;;;;;35.72;21.58;;;1.70;99.90;;;;;;5083671;28;20141;-75
2020/12/03 00:31:25;;;;;;;35.80;20.42;;;1.70;99.90;;;;;;5064554;28;20054;-75
2020/12/03 00:33:52;;;;;;;37.80;20.92;;;1.60;99.90;;;;;;5067110;28;20048;-76
2020/12/03 00:36:20;;;;;;;37.70;22.02;;;1.70;99.90;;;;;;5049791;28;20047;-75
2020/12/03 00:38:47;;;;;;;43.63;22.40;;;1.70;99.90;;;;;;5084078;28;20523;-75
2020/12/03 00:41:14;;;;;;;39.42;20.92;;;1.70;99.90;;;;;;5084642;28;20232;-75
2020/12/03 00:43:40;;;;;;;42.53;21.75;;;1.60;99.90;;;;;;5082013;28;20059;-76
2020/12/03 00:46:06;;;;;;;39.90;21.45;;;1.50;99.90;;;;;;5064311;28;20650;-76
2020/12/03 00:48:33;;;;;;;32.10;17.90;;;1.60;99.90;;;;;;5084299;28;20051;-76
2020/12/03 00:50:59;;;;;;;37.63;21.40;;;1.50;99.90;;;;;;5079125;28;20048;-74
2020/12/03 00:53:26;;;;;;;37.30;20.77;;;1.40;99.90;;;;;;5083746;28;20051;-75
2020/12/03 00:55:53;;;;;;;32.90;19.17;;;1.40;99.90;;;;;;5067069;28;20105;-75
2020/12/03 00:58:19;;;;;;;40.67;21.58;;;1.50;99.90;;;;;;5062904;28;20040;-76
2020/12/03 01:00:46;;;;;;;39.10;19.98;;;1.40;99.90;;;;;;5064238;28;20098;-76
2020/12/03 01:03:13;;;;;;;44.20;23.15;;;1.40;99.90;;;;;;5082393;28;20436;-76
2020/12/03 01:05:39;;;;;;;38.75;22.15;;;1.40;99.90;;;;;;5079681;28;20048;-76
2020/12/03 01:08:06;;;;;;;40.35;20.92;;;1.40;99.90;;;;;;5083257;28;20051;-74
2020/12/03 01:10:34;;;;;;;30.88;18.23;;;1.40;99.90;;;;;;5085406;28;20135;-75
2020/12/03 01:13:01;;;;;;;39.22;20.92;;;1.40;99.90;;;;;;5076912;28;20231;-75
2020/12/03 01:15:28;;;;;;;41.00;21.38;;;1.40;99.90;;;;;;5082598;28;20044;-74
2020/12/03 01:17:54;;;;;;;39.25;21.70;;;1.40;99.90;;;;;;5079233;28;20044;-76
2020/12/03 01:20:26;;;;;;;36.75;21.25;;;1.40;99.90;;;;;;5048946;28;20040;-75
2020/12/03 01:22:53;;;;;;;36.22;21.27;;;1.40;99.90;;;;;;5045858;28;20086;-75
2020/12/03 01:25:23;;;;;;;36.78;21.55;;;1.40;99.90;;;;;;5083882;28;20051;-75
2020/12/03 01:27:52;;;;;;;36.20;22.58;;;1.40;99.90;;;;;;5062779;28;20040;-75
2020/12/03 01:30:20;;;;;;;34.67;19.30;;;1.60;99.90;;;;;;5064456;28;20036;-75
2020/12/03 01:32:47;;;;;;;38.45;20.08;;;1.60;99.90;;;;;;5078418;28;20066;-75
2020/12/03 01:35:14;;;;;;;38.92;20.52;;;1.60;99.90;;;;;;5083153;28;20062;-74
2020/12/03 01:37:41;;;;;;;38.95;22.25;;;1.60;99.90;;;;;;5063943;28;20062;-75
2020/12/03 01:40:11;;;;;;;44.35;22.95;;;1.60;99.90;;;;;;5064126;28;20044;-74
2020/12/03 01:42:40;;;;;;;35.17;20.63;;;1.60;99.90;;;;;;5082501;28;20052;-75
2020/12/03 01:45:44;;;;;;;37.15;20.80;;;1.50;99.90;;;;;;5065945;28;20074;-75
2020/12/03 01:48:18;;;;;;;43.10;23.38;;;1.50;99.90;;;;;;5081112;28;20046;-75
2020/12/03 01:50:46;;;;;;;38.83;22.58;;;1.50;99.90;;;;;;5063431;28;20036;-75
2020/12/03 01:53:15;;;;;;;42.65;22.05;;;1.50;99.90;;;;;;5082196;28;20051;-75
2020/12/03 01:55:42;;;;;;;43.50;24.17;;;1.60;99.90;;;;;;5065987;28;20147;-76
2020/12/03 01:58:19;;;;;;;38.83;21.88;;;1.60;99.90;;;;;;5065086;28;20147;-75
2020/12/03 02:00:46;;;;;;;45.00;24.35;;;1.60;99.90;;;;;;5079363;28;20509;-75
2020/12/03 02:03:12;;;;;;;39.50;22.77;;;1.60;99.90;;;;;;5081673;28;20488;-75
2020/12/03 02:05:39;;;;;;;44.88;25.23;;;1.60;99.90;;;;;;5079877;28;20045;-75
2020/12/03 02:08:05;;;;;;;41.63;23.92;;;1.60;99.90;;;;;;5073416;28;20583;-74
2020/12/03 02:10:31;;;;;;;44.53;25.55;;;1.60;99.90;;;;;;5042204;28;20416;-75
2020/12/03 02:12:58;;;;;;;41.53;23.55;;;1.50;99.90;;;;;;5081732;28;20056;-75
2020/12/03 02:15:24;;;;;;;44.60;26.55;;;1.60;99.90;;;;;;5084550;28;20118;-75
2020/12/03 02:17:50;;;;;;;50.53;25.88;;;1.50;99.90;;;;;;5086445;28;20048;-74
2020/12/03 02:20:19;;;;;;;46.50;24.92;;;1.60;99.90;;;;;;5069656;28;20428;-74
2020/12/03 02:22:47;;;;;;;41.53;24.65;;;1.50;99.90;;;;;;5080385;28;20046;-76
2020/12/03 02:25:14;;;;;;;46.70;26.15;;;1.60;99.90;;;;;;5068065;28;20036;-75
2020/12/03 02:27:42;;;;;;;47.08;25.60;;;1.60;99.90;;;;;;5069120;28;20044;-75
2020/12/03 02:30:11;;;;;;;40.00;22.30;;;1.70;99.90;;;;;;5069318;28;20035;-75
2020/12/03 02:32:37;;;;;;;43.05;25.48;;;1.70;99.90;;;;;;5080748;28;20058;-76
2020/12/03 02:35:07;;;;;;;47.33;26.90;;;1.70;99.90;;;;;;5085035;28;20060;-75
2020/12/03 02:37:34;;;;;;;52.28;26.58;;;1.60;99.90;;;;;;5080635;28;20067;-74
2020/12/03 02:40:01;;;;;;;43.60;25.42;;;1.60;99.90;;;;;;5068212;28;20171;-76
2020/12/03 02:42:27;;;;;;;44.33;26.10;;;1.80;99.90;;;;;;5084950;28;20508;-76
2020/12/03 02:44:54;;;;;;;45.30;25.13;;;1.80;99.90;;;;;;5084760;28;20044;-76
2020/12/03 02:47:22;;;;;;;46.88;25.73;;;1.80;99.90;;;;;;5066772;28;20120;-75
2020/12/03 02:49:50;;;;;;;39.55;24.75;;;1.80;99.90;;;;;;5085649;28;20576;-75
2020/12/03 02:52:19;;;;;;;43.30;24.92;;;1.70;99.90;;;;;;5084562;28;20055;-76
2020/12/03 02:54:46;;;;;;;43.97;26.00;;;1.70;99.90;;;;;;5075107;28;20139;-76
2020/12/03 02:57:13;;;;;;;45.65;26.02;;;1.70;99.90;;;;;;5085571;28;20048;-75
2020/12/03 02:59:39;;;;;;;42.35;25.00;;;1.80;99.90;;;;;;5099027;27;20051;-75
2020/12/03 03:02:06;;;;;;;47.25;26.45;;;1.80;99.90;;;;;;5107662;28;20408;-75
2020/12/03 03:04:33;;;;;;;48.70;26.98;;;1.80;99.90;;;;;;5079065;28;20156;-76
2020/12/03 03:06:59;;;;;;;47.45;24.85;;;1.70;99.90;;;;;;5065160;28;20049;-76
2020/12/03 03:09:25;;;;;;;41.55;24.52;;;1.70;99.90;;;;;;5066586;28;20052;-75
2020/12/03 03:11:52;;;;;;;43.75;25.67;;;1.60;99.90;;;;;;5064953;28;20071;-75
2020/12/03 03:14:19;;;;;;;50.65;25.27;;;1.80;99.90;;;;;;5084598;28;20056;-76
2020/12/03 03:16:48;;;;;;;45.97;24.80;;;1.70;99.90;;;;;;5085368;28;20424;-75
2020/12/03 03:19:16;;;;;;;40.42;24.15;;;1.70;99.90;;;;;;5092015;28;20055;-74
2020/12/03 03:21:43;;;;;;;43.92;24.90;;;1.70;99.90;;;;;;5086868;28;20055;-77
2020/12/03 03:24:09;;;;;;;40.58;23.35;;;1.70;99.90;;;;;;5084418;28;20058;-74
2020/12/03 03:26:36;;;;;;;43.47;23.90;;;1.70;99.90;;;;;;5064333;28;20581;-74
2020/12/03 03:29:06;;;;;;;46.65;26.58;;;1.70;99.90;;;;;;5067421;28;20139;-74
2020/12/03 03:31:33;;;;;;;46.08;24.88;;;1.80;99.90;;;;;;5084179;28;20056;-73
2020/12/03 03:33:59;;;;;;;42.97;22.80;;;1.80;99.90;;;;;;5084028;28;20134;-74
2020/12/03 03:36:26;;;;;;;43.05;23.48;;;1.80;99.90;;;;;;5086102;28;20043;-74
2020/12/03 03:38:52;;;;;;;44.42;23.50;;;1.80;99.90;;;;;;5085633;28;20058;-74
2020/12/03 03:41:18;;;;;;;42.17;24.63;;;1.80;99.90;;;;;;5082735;28;20058;-76
2020/12/03 03:43:45;;;;;;;44.05;23.67;;;1.80;99.90;;;;;;5083726;28;20040;-75
2020/12/03 03:46:12;;;;;;;47.65;25.60;;;1.80;99.90;;;;;;5083855;28;20044;-74
2020/12/03 03:48:39;;;;;;;45.50;25.45;;;1.80;99.90;;;;;;5088516;28;20040;-74
2020/12/03 03:51:05;;;;;;;43.53;24.50;;;1.70;99.90;;;;;;5087114;28;20050;-75
2020/12/03 03:53:32;;;;;;;42.67;24.45;;;1.70;99.90;;;;;;5083910;28;20054;-74
2020/12/03 03:55:59;;;;;;;40.65;23.38;;;1.80;99.90;;;;;;5084111;28;20057;-75
2020/12/03 03:58:25;;;;;;;42.55;25.42;;;1.70;99.90;;;;;;5050827;28;20044;-74
2020/12/03 04:00:52;;;;;;;42.65;23.75;;;1.80;99.90;;;;;;5085245;28;20056;-75
2020/12/03 04:03:20;;;;;;;39.55;23.73;;;1.80;99.90;;;;;;5084280;28;20602;-74
2020/12/03 04:05:49;;;;;;;42.45;22.48;;;1.80;99.90;;;;;;5066734;28;20633;-74
2020/12/03 04:08:18;;;;;;;43.92;25.35;;;1.80;99.90;;;;;;5067188;28;20071;-75
2020/12/03 04:10:45;;;;;;;46.17;24.80;;;1.70;99.90;;;;;;5085986;28;20075;-74
2020/12/03 04:13:12;;;;;;;49.47;26.75;;;1.80;99.90;;;;;;5085407;28;20062;-75
2020/12/03 04:15:38;;;;;;;43.63;24.95;;;1.80;99.90;;;;;;5085628;28;20063;-75
2020/12/03 04:18:05;;;;;;;38.50;23.30;;;1.70;99.90;;;;;;5038063;28;20048;-75
2020/12/03 04:20:33;;;;;;;46.83;24.73;;;1.80;99.90;;;;;;5095864;28;20057;-74
2020/12/03 04:22:59;;;;;;;42.25;24.23;;;1.80;99.90;;;;;;5104490;28;20067;-75
2020/12/03 04:25:26;;;;;;;47.78;25.73;;;1.70;99.90;;;;;;5100464;28;20570;-74
2020/12/03 04:27:52;;;;;;;36.13;23.08;;;1.70;99.90;;;;;;5066970;28;20048;-74
2020/12/03 04:30:18;;;;;;;40.38;24.42;;;1.70;99.90;;;;;;5083086;28;20036;-75
2020/12/03 04:32:45;;;;;;;44.97;25.00;;;1.70;99.90;;;;;;5081334;28;20052;-74
2020/12/03 04:35:11;;;;;;;42.53;24.27;;;1.70;99.90;;;;;;5082547;28;20044;-74
2020/12/03 04:37:38;;;;;;;41.72;23.23;;;1.70;99.90;;;;;;5066726;28;20071;-74
2020/12/03 04:40:08;;;;;;;37.20;22.60;;;1.70;99.90;;;;;;5083317;28;20052;-74
2020/12/03 04:42:36;;;;;;;39.15;25.45;;;1.70;99.90;;;;;;5082744;28;20050;-75
2020/12/03 04:45:23;;;;;;;39.28;23.33;;;1.70;99.90;;;;;;5062625;28;20044;-74
2020/12/03 04:48:01;;;;;;;44.65;25.38;;;1.60;99.90;;;;;;5064174;28;20420;-74
2020/12/03 04:50:42;;;;;;;49.70;25.13;;;1.70;99.90;;;;;;5085410;28;20765;-74
2020/12/03 04:53:29;;;;;;;43.33;24.42;;;1.60;99.90;;;;;;5084396;28;20052;-75
2020/12/03 04:56:03;;;;;;;43.20;23.73;;;1.70;99.90;;;;;;5066243;28;20108;-74
2020/12/03 04:58:41;;;;;;;42.88;25.10;;;1.70;99.90;;;;;;5072596;28;20057;-76
2020/12/03 05:01:10;;;;;;;41.00;24.15;;;1.70;99.90;;;;;;5062018;28;20378;-75
2020/12/03 05:03:57;;;;;;;39.65;24.90;;;1.70;99.90;;;;;;5044822;28;20146;-74
2020/12/03 05:06:35;;;;;;;40.13;25.08;;;1.70;99.90;;;;;;5045491;28;20052;-75
2020/12/03 05:09:20;;;;;;;44.05;25.98;;;1.70;99.90;;;;;;5063617;28;20919;-75
2020/12/03 05:11:55;;;;;;;42.22;25.38;;;1.70;99.90;;;;;;5046205;28;20052;-75
2020/12/03 05:14:37;;;;;;;44.03;26.35;;;1.70;99.90;;;;;;5063413;28;20078;-75
2020/12/03 05:17:22;;;;;;;42.22;24.90;;;1.70;99.90;;;;;;5063538;28;20063;-76
2020/12/03 05:20:13;;;;;;;40.65;24.25;;;1.60;99.90;;;;;;5085537;28;20049;-75
2020/12/03 05:22:40;;;;;;;41.40;24.40;;;1.50;99.90;;;;;;5046190;28;20041;-75
2020/12/03 05:25:16;;;;;;;41.22;23.27;;;1.50;99.90;;;;;;5073491;28;20044;-74
2020/12/03 05:27:44;;;;;;;44.63;24.58;;;1.40;99.90;;;;;;5065266;28;20040;-75
2020/12/03 05:30:11;;;;;;;44.17;26.02;;;1.50;99.90;;;;;;5082880;28;20048;-75
2020/12/03 05:32:37;;;;;;;40.55;23.38;;;1.40;99.90;;;;;;5064679;28;20052;-75
2020/12/03 05:35:05;;;;;;;40.80;24.58;;;1.50;99.90;;;;;;5061791;28;20044;-75
2020/12/03 05:37:33;;;;;;;43.13;23.95;;;1.50;99.90;;;;;;5046111;28;20578;-76
2020/12/03 05:40:00;;;;;;;46.30;24.80;;;1.50;99.90;;;;;;5063226;28;20048;-75
2020/12/03 05:42:34;;;;;;;44.53;24.20;;;1.50;99.90;;;;;;5060860;28;20052;-75
2020/12/03 05:45:09;;;;;;;44.90;24.48;;;1.50;99.90;;;;;;5062350;28;20143;-76
2020/12/03 05:47:39;;;;;;;40.28;24.73;;;1.50;99.90;;;;;;5063686;28;20051;-75
2020/12/03 05:50:10;;;;;;;43.95;25.38;;;1.40;99.90;;;;;;5094533;28;20047;-76
2020/12/03 05:52:37;;;;;;;41.05;24.45;;;1.40;99.90;;;;;;5073010;28;20055;-76
2020/12/03 05:55:12;;;;;;;45.85;25.20;;;1.30;99.90;;;;;;5070544;28;20048;-76
2020/12/03 05:57:41;;;;;;;47.30;24.10;;;1.30;99.90;;;;;;5069712;28;20067;-76
2020/12/03 06:00:14;;;;;;;44.25;25.05;;;1.40;99.90;;;;;;5086855;28;20543;-75
2020/12/03 06:02:53;;;;;;;47.70;25.75;;;1.30;99.90;;;;;;5052779;28;20048;-76
2020/12/03 06:05:30;;;;;;;48.95;26.25;;;1.40;99.90;;;;;;5086348;28;20087;-75
2020/12/03 06:08:04;;;;;;;49.40;24.00;;;1.40;99.90;;;;;;5062415;28;20348;-77
2020/12/03 06:10:50;;;;;;;47.78;26.27;;;1.30;99.90;;;;;;5069487;28;20055;-77
2020/12/03 06:13:40;;;;;;;46.95;25.25;;;1.40;99.90;;;;;;5048436;28;20052;-75
2020/12/03 06:16:39;;;;;;;50.35;25.67;;;1.40;99.90;;;;;;5067216;28;20056;-75
2020/12/03 06:19:50;;;;;;;52.40;25.10;;;1.40;99.90;;;;;;5086101;28;20055;-74
2020/12/03 06:22:19;;;;;;;54.05;24.98;;;1.40;99.90;;;;;;5073313;28;20033;-75
2020/12/03 06:24:56;;;;;;;52.70;24.48;;;1.40;99.90;;;;;;5074425;28;20055;-74
2020/12/03 06:27:58;;;;;;;48.80;25.60;;;1.40;99.90;;;;;;5093712;28;20048;-73
2020/12/03 06:30:28;;;;;;;52.40;23.52;;;1.30;99.90;;;;;;5075362;28;20139;-75
2020/12/03 06:33:05;;;;;;;50.28;26.50;;;1.40;99.90;;;;;;5085046;28;20052;-78
2020/12/03 06:35:45;;;;;;;54.35;25.23;;;1.50;99.90;;;;;;5034602;28;20044;-75
2020/12/03 06:38:19;;;;;;;44.78;24.17;;;1.50;99.90;;;;;;5059219;28;20428;-74
2020/12/03 06:40:55;;;;;;;52.00;24.77;;;1.50;99.90;;;;;;5083296;28;20048;-74
2020/12/03 06:43:42;;;;;;;46.50;23.17;;;1.50;99.90;;;;;;5067157;28;20040;-74
2020/12/03 06:46:46;;;;;;;55.03;26.00;;;1.50;99.90;;;;;;5069159;28;20412;-75
2020/12/03 06:49:46;;;;;;;50.65;26.60;;;1.40;99.90;;;;;;5088229;28;20044;-77
2020/12/03 06:52:43;;;;;;;63.08;28.67;;;1.40;99.90;;;;;;5077170;28;20105;-77
2020/12/03 06:55:22;;;;;;;51.92;26.23;;;1.40;99.90;;;;;;5067523;28;20040;-72
2020/12/03 06:57:57;;;;;;;50.42;24.10;;;1.40;99.90;;;;;;5088407;28;20120;-74
2020/12/03 07:00:45;;;;;;;45.00;21.55;;;1.30;99.90;;;;;;5075514;28;20052;-76
2020/12/03 07:03:48;;;;;;;48.95;23.95;;;1.40;99.90;;;;;;5074807;28;20048;-76
2020/12/03 07:06:28;;;;;;;48.63;24.65;;;1.40;99.90;;;;;;5070854;28;20386;-75
2020/12/03 07:09:13;;;;;;;55.35;26.42;;;1.50;99.90;;;;;;5055676;28;20040;-76
2020/12/03 07:12:18;;;;;;;56.00;25.17;;;1.40;99.90;;;;;;5072174;28;20215;-75
2020/12/03 07:15:22;;;;;;;48.17;21.85;;;1.40;99.90;;;;;;5078098;28;20155;-76
2020/12/03 07:18:26;;;;;;;51.42;23.08;;;1.40;99.90;;;;;;5073277;28;20451;-76
2020/12/03 07:21:13;;;;;;;44.38;21.58;;;1.40;99.90;;;;;;5092200;28;20067;-75
2020/12/03 07:23:42;;;;;;;46.05;22.65;;;1.40;99.90;;;;;;5070049;28;20067;-74
2020/12/03 07:26:44;;;;;;;51.50;24.80;;;1.40;99.90;;;;;;5053423;28;20048;-75
2020/12/03 07:29:18;;;;;;;48.33;23.13;;;1.50;99.90;;;;;;5070396;28;20139;-76
2020/12/03 07:31:49;;;;;;;42.97;22.50;;;1.40;99.90;;;;;;5088235;28;20055;-76
2020/12/03 07:34:47;;;;;;;52.47;23.92;;;1.40;99.90;;;;;;5076305;28;20051;-75
2020/12/03 07:37:21;;;;;;;51.10;22.38;;;1.40;99.90;;;;;;5064820;28;20055;-76
2020/12/03 07:39:49;;;;;;;45.10;23.00;;;1.40;99.90;;;;;;5064954;28;20090;-75
2020/12/03 07:42:20;;;;;;;45.65;21.77;;;1.40;99.90;;;;;;5047023;28;20585;-77
2020/12/03 07:44:53;;;;;;;40.90;21.88;;;1.50;99.90;;;;;;5048560;28;20440;-76
2020/12/03 07:47:22;;;;;;;50.22;25.08;;;1.40;99.90;;;;;;5064619;28;20118;-75
2020/12/03 07:49:51;;;;;;;47.88;23.42;;;1.40;99.90;;;;;;5089571;28;20040;-76
2020/12/03 07:52:19;;;;;;;43.33;21.88;;;1.40;99.90;;;;;;5087828;28;20058;-76
2020/12/03 07:54:45;;;;;;;47.88;21.90;;;1.40;99.90;;;;;;5083711;28;20442;-76
2020/12/03 07:57:33;;;;;;;44.92;21.25;;;1.40;99.90;;;;;;5084267;28;20036;-75
2020/12/03 08:00:38;;;;;;;45.70;20.15;;;1.30;99.90;;;;;;5068583;28;20052;-75
2020/12/03 08:03:05;;;;;;;46.25;21.30;;;1.30;99.90;;;;;;5086221;28;20060;-76
2020/12/03 08:05:49;;;;;;;42.13;19.40;;;1.40;99.90;;;;;;5085515;28;20481;-76
2020/12/03 08:08:21;;;;;;;42.75;21.70;;;1.30;99.90;;;;;;5056625;28;20054;-76
2020/12/03 08:10:48;;;;;;;43.13;21.25;;;1.30;99.90;;;;;;5047237;28;20072;-75
2020/12/03 08:13:37;;;;;;;40.92;21.75;;;1.40;99.90;;;;;;5063015;28;20899;-75
2020/12/03 08:16:12;;;;;;;50.65;25.40;;;1.40;99.90;;;;;;5063554;28;20421;-75
2020/12/03 08:19:00;;;;;;;39.58;20.70;;;1.40;99.90;;;;;;5083138;28;20051;-74
2020/12/03 08:21:38;;;;;;;37.15;19.60;;;1.30;99.90;;;;;;5091143;28;20206;-75
2020/12/03 08:24:07;;;;;;;43.13;22.58;;;1.30;99.90;;;;;;5104660;28;20051;-75
2020/12/03 08:26:34;;;;;;;38.75;20.85;;;1.30;99.90;;;;;;5078003;28;20046;-75
2020/12/03 08:29:00;;;;;;;38.80;21.42;;;1.30;99.90;;;;;;5067646;28;20048;-75
2020/12/03 08:31:26;;;;;;;40.90;21.63;;;1.30;99.90;;;;;;5067483;28;20070;-75
2020/12/03 08:33:53;;;;;;;38.28;20.05;;;1.30;99.90;;;;;;5083430;28;20059;-75
2020/12/03 08:36:22;;;;;;;39.75;20.92;;;1.30;99.90;;;;;;5066721;28;20560;-75
2020/12/03 08:38:54;;;;;;;41.80;21.73;;;1.30;99.90;;;;;;5083199;28;20054;-74
2020/12/03 08:41:27;;;;;;;39.03;21.85;;;1.20;99.90;;;;;;5083133;28;20098;-74
2020/12/03 08:44:00;;;;;;;42.67;22.27;;;1.30;99.90;;;;;;5065644;28;20109;-74
2020/12/03 08:46:32;;;;;;;43.15;21.67;;;1.30;99.90;;;;;;5079444;28;20044;-74
2020/12/03 08:48:58;;;;;;;45.38;22.45;;;1.30;99.90;;;;;;5063703;28;20047;-75
2020/12/03 08:51:24;;;;;;;40.10;21.00;;;1.30;99.90;;;;;;5078519;28;20048;-75
2020/12/03 08:53:51;;;;;;;40.67;23.02;;;1.30;99.90;;;;;;5102624;28;20082;-76
2020/12/03 08:56:20;;;;;;;41.95;22.48;;;1.30;99.90;;;;;;5087468;28;20141;-75
2020/12/03 08:59:18;;;;;;;34.72;20.55;;;1.30;99.90;;;;;;5077963;28;20051;-76
2020/12/03 09:01:58;;;;;;;44.95;20.77;;;1.30;99.90;;;;;;5088920;28;20059;-75
2020/12/03 09:04:28;;;;;;;40.95;22.30;;;1.30;99.90;;;;;;5061303;28;20127;-76
2020/12/03 09:06:57;;;;;;;44.65;22.83;;;1.40;99.90;;;;;;5046934;28;20098;-76
2020/12/03 09:09:27;;;;;;;39.53;20.17;;;1.40;99.90;;;;;;5040921;28;20041;-75
2020/12/03 09:11:54;;;;;;;41.83;23.35;;;1.40;99.90;;;;;;5063866;28;20072;-77
2020/12/03 09:14:22;;;;;;;37.85;18.80;;;1.40;99.90;;;;;;5046976;28;20041;-76
2020/12/03 09:17:03;;;;;;;40.45;19.80;;;1.40;99.90;;;;;;5063683;28;20086;-76
2020/12/03 09:19:29;;;;;;;41.00;22.15;;;1.40;99.90;;;;;;5067860;28;20044;-75
2020/12/03 09:21:58;;;;;;;39.47;20.88;;;1.30;99.90;;;;;;5058325;28;20135;-76
2020/12/03 09:24:26;;;;;;;37.95;20.75;;;1.30;99.90;;;;;;5054208;28;20042;-75
2020/12/03 09:26:56;;;;;;;38.67;19.27;;;1.30;99.90;;;;;;5052619;28;20040;-76
2020/12/03 09:29:23;;;;;;;43.30;22.73;;;1.40;99.90;;;;;;5070855;28;20050;-76
2020/12/03 09:32:12;;;;;;;48.92;24.55;;;1.50;99.90;;;;;;5070758;28;20119;-75
2020/12/03 09:34:41;;;;;;;42.15;22.08;;;1.40;99.90;;;;;;5088051;28;20080;-76
2020/12/03 09:37:07;;;;;;;43.58;22.63;;;1.40;99.90;;;;;;5068824;28;20052;-76
2020/12/03 09:39:35;;;;;;;32.88;18.52;;;1.30;99.90;;;;;;5084017;28;20045;-76
2020/12/03 09:42:03;;;;;;;43.08;20.77;;;1.40;99.90;;;;;;5067591;28;20076;-76
2020/12/03 09:44:34;;;;;;;39.03;20.95;;;1.40;99.90;;;;;;5078659;28;20111;-76
2020/12/03 09:47:05;;;;;;;43.53;23.08;;;1.50;99.90;;;;;;5088387;28;20120;-75
2020/12/03 09:49:33;;;;;;;44.88;23.67;;;1.50;99.90;;;;;;5096279;28;20697;-76
2020/12/03 09:52:08;;;;;;;45.22;23.20;;;1.60;99.90;;;;;;5089551;28;20057;-76
2020/12/03 09:54:35;;;;;;;49.80;24.90;;;1.60;99.90;;;;;;5107638;28;20039;-76
2020/12/03 09:57:02;;;;;;;52.67;22.88;;;1.60;99.90;;;;;;5086223;28;20151;-74
2020/12/03 09:59:28;;;;;;;48.53;24.90;;;1.60;99.90;;;;;;5069591;28;20532;-76
2020/12/03 10:02:34;;;;;;;48.92;23.77;;;1.50;99.90;;;;;;5087405;28;20480;-75
2020/12/03 10:05:29;;;;;;;51.40;21.83;;;1.50;99.90;;;;;;5068338;28;20664;-76
2020/12/03 10:08:19;;;;;;;48.80;21.75;;;1.40;99.90;;;;;;5050469;28;20102;-76
2020/12/03 10:10:52;;;;;;;49.75;22.83;;;1.40;99.90;;;;;;5053282;28;20041;-76
2020/12/03 10:13:49;;;;;;;45.08;23.50;;;1.40;99.90;;;;;;5086931;28;20048;-75
2020/12/03 10:16:33;;;;;;;40.88;21.83;;;1.40;99.90;;;;;;5086401;28;20051;-76
2020/12/03 10:19:04;;;;;;;44.45;19.52;;;1.30;99.90;;;;;;5078069;28;20047;-75
2020/12/03 10:21:41;;;;;;;40.22;19.27;;;1.40;99.90;;;;;;5083079;28;20040;-75
2020/12/03 10:24:15;;;;;;;42.67;21.42;;;1.30;99.90;;;;;;5088689;28;20138;-75
2020/12/03 10:27:18;;;;;;;43.72;21.77;;;1.30;99.90;;;;;;5086488;28;20109;-74
2020/12/03 10:30:07;;;;;;;46.63;21.33;;;1.30;99.90;;;;;;5066311;28;20139;-75
2020/12/03 10:32:38;;;;;;;48.00;23.40;;;1.40;99.90;;;;;;5083127;28;20127;-75
2020/12/03 10:35:05;;;;;;;45.47;20.00;;;1.40;99.90;;;;;;5074130;28;20052;-75
2020/12/03 10:37:43;;;;;;;41.65;20.10;;;1.40;99.90;;;;;;5065681;28;20057;-74
2020/12/03 10:40:16;;;;;;;54.20;23.25;;;1.40;99.90;;;;;;5064921;28;20557;-76
2020/12/03 10:42:51;;;;;;;44.25;21.42;;;1.50;99.90;;;;;;5065244;28;20492;-76
2020/12/03 10:45:24;;;;;;;;;;;1.60;99.90;;;;;;5068016;28;20524;-75
2020/12/03 10:48:00;;;;;;;44.45;20.90;;;1.50;99.90;;;;;;5065980;28;19942;-75
2020/12/03 10:50:52;;;;;;;45.53;21.55;;;1.50;99.90;;;;;;5070055;28;20583;-76
2020/12/03 10:53:26;;;;;;;53.00;23.33;;;1.50;99.90;;;;;;5083919;28;20070;-75
2020/12/03 10:56:15;;;;;;;42.75;20.50;;;1.50;99.90;;;;;;5087102;28;20109;-75
2020/12/03 10:59:04;;;;;;;45.20;22.65;;;1.50;99.90;;;;;;5068358;28;20059;-76
2020/12/03 11:01:33;;;;;;;38.53;19.27;;;1.50;99.90;;;;;;5067133;28;20135;-75
2020/12/03 11:04:04;;;;;;;39.75;19.33;;;1.50;99.90;;;;;;5047753;28;20047;-74
2020/12/03 11:06:32;;;;;;;43.25;22.20;;;1.50;99.90;;;;;;5049066;28;20044;-75
2020/12/03 11:09:00;;;;;;;43.08;19.42;;;1.60;99.90;;;;;;5066664;28;20063;-75
2020/12/03 11:11:36;;;;;;;42.75;21.65;;;1.70;99.90;;;;;;5065478;28;20056;-75
2020/12/03 11:14:11;;;;;;;39.03;19.45;;;1.70;99.90;;;;;;5064697;28;20055;-74
2020/12/03 11:16:48;;;;;;;44.00;18.58;;;1.60;99.90;;;;;;5049540;28;20454;-74
2020/12/03 11:19:36;;;;;;;48.22;21.48;;;1.70;99.90;;;;;;5087768;28;20047;-75
2020/12/03 11:22:15;;;;;;;38.50;20.30;;;1.70;99.90;;;;;;5099936;28;20552;-76
2020/12/03 11:24:50;;;;;;;39.95;20.85;;;1.70;99.90;;;;;;5105568;28;20043;-76
2020/12/03 11:27:24;;;;;;;38.05;19.90;;;1.70;99.90;;;;;;5084326;28;20374;-75
2020/12/03 11:29:50;;;;;;;63.33;29.02;;;1.70;99.90;;;;;;5085253;28;20146;-75
2020/12/03 11:32:24;;;;;;;53.90;29.58;;;1.80;99.90;;;;;;5048349;28;20033;-74
2020/12/03 11:34:51;;;;;;;37.30;22.00;;;1.80;99.90;;;;;;5064662;28;20135;-74
2020/12/03 11:37:23;;;;;;;40.97;23.85;;;1.80;99.90;;;;;;5081682;28;20287;-74
2020/12/03 11:39:51;;;;;;;37.15;20.83;;;1.80;99.90;;;;;;5047934;28;20044;-77
2020/12/03 11:48:20;;;;;;;35.13;20.70;;;1.80;99.90;;;;;;5086080;28;20051;-75
2020/12/03 11:50:46;;;;;;;34.65;20.23;;;1.80;99.90;;;;;;5098656;28;20057;-75
2020/12/03 11:53:13;;;;;;;30.35;19.50;;;1.90;99.90;;;;;;5071331;28;20040;-76
2020/12/03 11:55:40;;;;;;;29.02;19.23;;;1.90;99.90;;;;;;5086622;28;20087;-74
2020/12/03 11:58:08;;;;;;;31.88;18.30;;;1.90;99.90;;;;;;5084778;28;20126;-75
2020/12/03 12:00:35;;;;;;;35.35;20.33;;;2.00;99.90;;;;;;5067320;28;20075;-75
2020/12/03 12:03:11;;;;;;;35.90;19.45;;;2.00;99.90;;;;;;5083539;28;20622;-74
2020/12/03 12:13:15;;;;;;;31.05;18.67;;;2.10;99.90;;;;;;5085746;28;20126;-74
2020/12/03 12:15:42;;;;;;;29.30;19.27;;;2.10;99.90;;;;;;5049236;28;20060;-76
2020/12/03 12:18:09;;;;;;;29.15;19.35;;;2.10;99.90;;;;;;5069266;28;20659;-74
2020/12/03 12:20:36;;;;;;;29.17;18.30;;;2.00;99.90;;;;;;5094880;28;20139;-74
2020/12/03 12:23:03;;;;;;;35.03;23.77;;;2.10;99.90;;;;;;5104341;28;20400;-74
2020/12/03 12:25:29;;;;;;;31.08;20.45;;;2.10;99.90;;;;;;5087271;28;20057;-74
2020/12/03 12:27:55;;;;;;;35.58;21.80;;;2.10;99.90;;;;;;5059883;28;20036;-73
2020/12/03 12:30:21;;;;;;;31.23;20.15;;;2.10;99.90;;;;;;5083406;28;20044;-75
2020/12/03 12:32:48;;;;;;;32.28;20.40;;;2.20;99.90;;;;;;5083876;28;20163;-75
2020/12/03 12:35:14;;;;;;;23.45;17.30;;;2.30;99.90;;;;;;5063359;28;20142;-75
2020/12/03 12:37:40;;;;;;;30.45;20.73;;;2.30;99.90;;;;;;5071541;28;20418;-75
2020/12/03 12:40:07;;;;;;;29.63;19.58;;;2.30;99.90;;;;;;5063032;28;20056;-75
2020/12/03 12:42:33;;;;;;;35.28;23.30;;;2.30;99.90;;;;;;5064922;28;20044;-75
2020/12/03 12:44:59;;;;;;;22.88;17.70;;;2.20;99.90;;;;;;5046565;28;20147;-73
2020/12/03 12:47:26;;;;;;;26.00;17.25;;;2.30;99.90;;;;;;5061371;28;20139;-73
2020/12/03 12:49:53;;;;;;;23.20;17.05;;;2.40;99.90;;;;;;5092465;28;20415;-74
2020/12/03 12:52:20;;;;;;;31.55;19.80;;;2.40;99.90;;;;;;5084286;28;20040;-75
2020/12/03 12:54:46;;;;;;;32.72;20.50;;;2.30;99.90;;;;;;5084147;28;20048;-75
2020/12/03 12:57:17;;;;;;;30.45;20.25;;;2.40;99.90;;;;;;5082437;28;20132;-75
2020/12/03 12:59:45;;;;;;;29.77;20.60;;;2.30;99.90;;;;;;5047663;28;20075;-75
2020/12/03 13:02:11;;;;;;;25.48;18.13;;;2.40;99.90;;;;;;5064596;28;20420;-75
2020/12/03 13:04:38;;;;;;;28.70;18.77;;;2.40;99.90;;;;;;5043848;28;20045;-75
2020/12/03 13:07:08;;;;;;;32.05;19.27;;;2.30;99.90;;;;;;5060860;28;20477;-76
2020/12/03 13:09:35;;;;;;;26.88;17.90;;;2.30;99.90;;;;;;5080028;28;20155;-74
2020/12/03 13:12:01;;;;;;;30.40;19.02;;;2.20;99.90;;;;;;5084674;28;20058;-74
2020/12/03 13:14:28;;;;;;;33.80;20.23;;;2.20;99.90;;;;;;5084964;28;20055;-75
2020/12/03 13:16:55;;;;;;;32.22;21.23;;;2.00;99.90;;;;;;5066342;28;20146;-74
2020/12/03 13:19:22;;;;;;;40.25;22.55;;;2.00;99.90;;;;;;5090618;28;20048;-75